sensor_id;sensor_type;location;lat;lon;timestamp;pressure;altitude;pressure_sealevel;temperature;humidity
13836;BME280;6988;52.614;13.500;2023-02-11T00:02:52;54814.03;;;-143.77;68.68
13836;BME280;6988;52.614;13.500;2023-02-11T00:07:44;54824.28;;;-143.77;68.54
13836;BME280;6988;52.614;13.500;2023-02-11T00:12:36;54764.78;;;-143.77;68.74
13836;BME280;6988;52.614;13.500;2023-02-11T00:17:28;54770.94;;;-143.77;68.43
13836;BME280;6988;52.614;13.500;2023-02-11T00:22:22;54811.97;;;-143.77;68.95
13836;BME280;6988;52.614;13.500;2023-02-11T00:27:14;54783.25;;;-143.77;68.80
13836;BME280;6988;52.614;13.500;2023-02-11T00:32:06;54787.34;;;-143.77;68.65
13836;BME280;6988;52.614;13.500;2023-02-11T00:36:58;54783.25;;;-143.77;68.94
13836;BME280;6988;52.614;13.500;2023-02-11T00:41:51;54779.16;;;-143.77;69.14
13836;BME280;6988;52.614;13.500;2023-02-11T00:46:43;54758.63;;;-143.77;68.98
13836;BME280;6988;52.614;13.500;2023-02-11T00:51:35;54762.72;;;-143.77;69.00
13836;BME280;6988;52.614;13.500;2023-02-11T00:56:27;54746.31;;;-143.77;69.37
13836;BME280;6988;52.614;13.500;2023-02-11T01:01:22;54779.16;;;-143.77;69.32
13836;BME280;6988;52.614;13.500;2023-02-11T01:06:14;54805.81;;;-143.77;69.45
13836;BME280;6988;52.614;13.500;2023-02-11T01:11:13;54793.50;;;-143.77;69.38
13836;BME280;6988;52.614;13.500;2023-02-11T01:16:10;54807.88;;;-143.77;69.90
13836;BME280;6988;52.614;13.500;2023-02-11T01:21:04;54820.19;;;-143.77;70.29
13836;BME280;6988;52.614;13.500;2023-02-11T01:25:56;54787.34;;;-143.77;70.20
13836;BME280;6988;52.614;13.500;2023-02-11T01:30:48;54785.31;;;-143.77;70.65
13836;BME280;6988;52.614;13.500;2023-02-11T01:35:42;54789.41;;;-143.77;71.11
13836;BME280;6988;52.614;13.500;2023-02-11T01:40:35;54779.16;;;-143.77;71.52
13836;BME280;6988;52.614;13.500;2023-02-11T01:46:01;54783.25;;;-143.77;71.18
13836;BME280;6988;52.614;13.500;2023-02-11T01:51:02;54758.63;;;-143.77;71.09
13836;BME280;6988;52.614;13.500;2023-02-11T01:55:57;54773.00;;;-143.77;71.02
13836;BME280;6988;52.614;13.500;2023-02-11T02:01:08;54785.31;;;-143.77;71.40
13836;BME280;6988;52.614;13.500;2023-02-11T02:06:11;54789.41;;;-143.77;71.47
13836;BME280;6988;52.614;13.500;2023-02-11T02:11:08;54754.53;;;-143.77;71.62
13836;BME280;6988;52.614;13.500;2023-02-11T02:16:05;54787.34;;;-143.77;71.56
13836;BME280;6988;52.614;13.500;2023-02-11T02:21:36;54791.47;;;-143.77;71.51
13836;BME280;6988;52.614;13.500;2023-02-11T02:27:33;54768.88;;;-143.77;71.44
13836;BME280;6988;52.614;13.500;2023-02-11T02:32:42;54791.47;;;-143.77;71.59
13836;BME280;6988;52.614;13.500;2023-02-11T02:37:46;54770.94;;;-143.77;71.57
13836;BME280;6988;52.614;13.500;2023-02-11T02:42:40;54779.16;;;-143.77;71.41
13836;BME280;6988;52.614;13.500;2023-02-11T02:47:35;54799.66;;;-143.77;71.29
13836;BME280;6988;52.614;13.500;2023-02-11T02:52:36;54756.56;;;-143.77;71.58
13836;BME280;6988;52.614;13.500;2023-02-11T02:57:49;54770.94;;;-143.77;71.18
13836;BME280;6988;52.614;13.500;2023-02-11T03:03:13;54746.31;;;-143.77;71.63
13836;BME280;6988;52.614;13.500;2023-02-11T03:08:12;54775.03;;;-143.77;71.71
13836;BME280;6988;52.614;13.500;2023-02-11T03:13:07;54787.34;;;-143.77;71.67
13836;BME280;6988;52.614;13.500;2023-02-11T03:18:02;54764.78;;;-143.77;72.17
13836;BME280;6988;52.614;13.500;2023-02-11T03:23:04;54787.34;;;-143.77;72.46
13836;BME280;6988;52.614;13.500;2023-02-11T03:28:08;54762.72;;;-143.77;72.38
13836;BME280;6988;52.614;13.500;2023-02-11T03:33:13;54803.78;;;-143.77;72.60
13836;BME280;6988;52.614;13.500;2023-02-11T03:38:16;54760.69;;;-143.77;72.77
13836;BME280;6988;52.614;13.500;2023-02-11T03:43:15;54754.53;;;-143.77;72.82
13836;BME280;6988;52.614;13.500;2023-02-11T03:48:14;54787.34;;;-143.77;73.01
13836;BME280;6988;52.614;13.500;2023-02-11T03:53:08;54754.53;;;-143.77;73.08
13836;BME280;6988;52.614;13.500;2023-02-11T03:58:00;54816.09;;;-143.77;73.49
13836;BME280;6988;52.614;13.500;2023-02-11T04:02:52;54779.16;;;-143.77;73.45
13836;BME280;6988;52.614;13.500;2023-02-11T04:07:45;54766.84;;;-143.77;73.32
13836;BME280;6988;52.614;13.500;2023-02-11T04:12:37;54766.84;;;-143.77;73.87
13836;BME280;6988;52.614;13.500;2023-02-11T04:17:29;54787.34;;;-143.77;74.10
13836;BME280;6988;52.614;13.500;2023-02-11T04:22:21;54764.78;;;-143.77;74.46
13836;BME280;6988;52.614;13.500;2023-02-11T04:27:14;54791.47;;;-143.77;74.26
13836;BME280;6988;52.614;13.500;2023-02-11T04:32:06;54746.31;;;-143.77;75.23
13836;BME280;6988;52.614;13.500;2023-02-11T04:36:57;54791.47;;;-143.77;75.50
13836;BME280;6988;52.614;13.500;2023-02-11T04:41:49;54768.88;;;-143.77;75.23
13836;BME280;6988;52.614;13.500;2023-02-11T04:46:42;54775.03;;;-143.77;75.86
13836;BME280;6988;52.614;13.500;2023-02-11T04:51:34;54731.94;;;-143.77;75.95
13836;BME280;6988;52.614;13.500;2023-02-11T04:56:26;54770.94;;;-143.77;76.36
13836;BME280;6988;52.614;13.500;2023-02-11T05:01:17;54775.03;;;-143.77;76.37
13836;BME280;6988;52.614;13.500;2023-02-11T05:06:11;54783.25;;;-143.77;77.43
13836;BME280;6988;52.614;13.500;2023-02-11T05:11:03;54770.94;;;-143.77;78.19
13836;BME280;6988;52.614;13.500;2023-02-11T05:15:55;54783.25;;;-143.77;78.63
13836;BME280;6988;52.614;13.500;2023-02-11T05:20:47;54764.78;;;-143.77;79.24
13836;BME280;6988;52.614;13.500;2023-02-11T05:25:40;54768.88;;;-143.77;79.69
13836;BME280;6988;52.614;13.500;2023-02-11T05:30:32;54736.06;;;-143.77;79.56
13836;BME280;6988;52.614;13.500;2023-02-11T05:35:24;54773.00;;;-143.77;80.17
13836;BME280;6988;52.614;13.500;2023-02-11T05:40:16;54775.03;;;-143.77;80.32
13836;BME280;6988;52.614;13.500;2023-02-11T05:45:09;54734.00;;;-143.77;80.59
13836;BME280;6988;52.614;13.500;2023-02-11T05:50:03;54760.69;;;-143.77;80.45
13836;BME280;6988;52.614;13.500;2023-02-11T05:54:55;54758.63;;;-143.77;80.55
13836;BME280;6988;52.614;13.500;2023-02-11T05:59:47;54773.00;;;-143.77;80.95
13836;BME280;6988;52.614;13.500;2023-02-11T06:04:40;54727.84;;;-143.77;81.55
13836;BME280;6988;52.614;13.500;2023-02-11T06:09:32;54736.06;;;-143.77;81.59
13836;BME280;6988;52.614;13.500;2023-02-11T06:14:24;54760.69;;;-143.77;81.79
13836;BME280;6988;52.614;13.500;2023-02-11T06:19:17;54779.16;;;-143.77;81.87
13836;BME280;6988;52.614;13.500;2023-02-11T06:24:10;54775.03;;;-143.77;82.85
13836;BME280;6988;52.614;13.500;2023-02-11T06:29:02;54773.00;;;-143.77;83.21
13836;BME280;6988;52.614;13.500;2023-02-11T06:33:53;54740.16;;;-143.77;83.64
13836;BME280;6988;52.614;13.500;2023-02-11T06:38:46;54775.03;;;-143.77;83.57
13836;BME280;6988;52.614;13.500;2023-02-11T06:43:40;54768.88;;;-143.77;84.29
13836;BME280;6988;52.614;13.500;2023-02-11T06:48:33;54768.88;;;-143.77;84.73
13836;BME280;6988;52.614;13.500;2023-02-11T06:53:25;54725.78;;;-143.77;84.92
13836;BME280;6988;52.614;13.500;2023-02-11T06:58:17;54775.03;;;-143.77;84.94
13836;BME280;6988;52.614;13.500;2023-02-11T07:03:10;54777.09;;;-143.77;84.96
13836;BME280;6988;52.614;13.500;2023-02-11T07:08:02;54729.91;;;-143.77;85.07
13836;BME280;6988;52.614;13.500;2023-02-11T07:12:55;54775.03;;;-143.77;85.22
13836;BME280;6988;52.614;13.500;2023-02-11T07:17:47;54748.38;;;-143.77;84.81
13836;BME280;6988;52.614;13.500;2023-02-11T07:22:40;54766.84;;;-143.77;84.70
13836;BME280;6988;52.614;13.500;2023-02-11T07:27:32;54752.47;;;-143.77;85.13
13836;BME280;6988;52.614;13.500;2023-02-11T07:32:24;54723.75;;;-143.77;85.33
13836;BME280;6988;52.614;13.500;2023-02-11T07:37:15;54715.53;;;-143.77;85.30
13836;BME280;6988;52.614;13.500;2023-02-11T07:42:08;54729.91;;;-143.77;85.26
13836;BME280;6988;52.614;13.500;2023-02-11T07:47:00;54744.25;;;-143.77;84.74
13836;BME280;6988;52.614;13.500;2023-02-11T07:51:52;54744.25;;;-143.77;85.07
13836;BME280;6988;52.614;13.500;2023-02-11T07:56:44;54742.22;;;-143.77;84.63
13836;BME280;6988;52.614;13.500;2023-02-11T08:01:37;54729.91;;;-143.77;84.60
13836;BME280;6988;52.614;13.500;2023-02-11T08:06:33;54686.81;;;-143.77;84.39
13836;BME280;6988;52.614;13.500;2023-02-11T08:11:27;54734.00;;;-143.77;84.02
13836;BME280;6988;52.614;13.500;2023-02-11T08:16:23;54746.31;;;-143.77;84.08
13836;BME280;6988;52.614;13.500;2023-02-11T08:21:17;54723.75;;;-143.77;84.94
13836;BME280;6988;52.614;13.500;2023-02-11T08:26:14;54721.69;;;-143.77;84.94
13836;BME280;6988;52.614;13.500;2023-02-11T08:31:08;54729.91;;;-143.77;85.05
13836;BME280;6988;52.614;13.500;2023-02-11T08:36:00;54695.00;;;-143.77;85.64
13836;BME280;6988;52.614;13.500;2023-02-11T08:40:54;54723.75;;;-143.77;86.18
13836;BME280;6988;52.614;13.500;2023-02-11T08:45:46;54678.59;;;-143.77;85.86
13836;BME280;6988;52.614;13.500;2023-02-11T08:50:38;54697.06;;;-143.77;85.90
13836;BME280;6988;52.614;13.500;2023-02-11T08:55:30;54754.53;;;-143.77;86.36
13836;BME280;6988;52.614;13.500;2023-02-11T09:00:23;54738.09;;;-143.77;86.09
13836;BME280;6988;52.614;13.500;2023-02-11T09:05:15;54717.59;;;-143.77;85.89
13836;BME280;6988;52.614;13.500;2023-02-11T09:10:07;54734.00;;;-143.77;85.59
13836;BME280;6988;52.614;13.500;2023-02-11T09:14:59;54713.47;;;-143.77;85.42
13836;BME280;6988;52.614;13.500;2023-02-11T09:19:52;54692.97;;;-143.77;85.55
13836;BME280;6988;52.614;13.500;2023-02-11T09:24:44;54717.59;;;-143.77;85.15
13836;BME280;6988;52.614;13.500;2023-02-11T09:29:35;54713.47;;;-143.77;85.27
13836;BME280;6988;52.614;13.500;2023-02-11T09:34:27;54715.53;;;-143.77;84.91
13836;BME280;6988;52.614;13.500;2023-02-11T09:39:20;54705.28;;;-143.77;85.31
13836;BME280;6988;52.614;13.500;2023-02-11T09:44:19;54690.91;;;-143.77;85.42
13836;BME280;6988;52.614;13.500;2023-02-11T09:49:21;54717.59;;;-143.77;85.38
13836;BME280;6988;52.614;13.500;2023-02-11T09:54:25;54734.00;;;-143.77;85.99
13836;BME280;6988;52.614;13.500;2023-02-11T09:59:17;54699.13;;;-143.77;86.03
13836;BME280;6988;52.614;13.500;2023-02-11T10:04:21;54672.44;;;-143.77;86.40
13836;BME280;6988;52.614;13.500;2023-02-11T10:09:42;54705.28;;;-143.77;86.37
13836;BME280;6988;52.614;13.500;2023-02-11T10:15:05;54690.91;;;-143.77;87.06
13836;BME280;6988;52.614;13.500;2023-02-11T10:20:26;54672.44;;;-143.77;87.54
13836;BME280;6988;52.614;13.500;2023-02-11T10:25:26;54725.78;;;-143.77;87.53
13836;BME280;6988;52.614;13.500;2023-02-11T10:30:27;54703.22;;;-143.77;87.82
13836;BME280;6988;52.614;13.500;2023-02-11T10:35:22;54690.91;;;-143.77;87.86
13836;BME280;6988;52.614;13.500;2023-02-11T10:40:19;54699.13;;;-143.77;88.04
13836;BME280;6988;52.614;13.500;2023-02-11T10:45:24;54684.75;;;-143.77;88.76
13836;BME280;6988;52.614;13.500;2023-02-11T10:50:21;54701.16;;;-143.77;89.33
13836;BME280;6988;52.614;13.500;2023-02-11T10:55:16;54684.75;;;-143.77;89.45
13836;BME280;6988;52.614;13.500;2023-02-11T11:00:32;54711.44;;;-143.77;89.38
13836;BME280;6988;52.614;13.500;2023-02-11T11:05:31;54670.38;;;-143.77;89.37
13836;BME280;6988;52.614;13.500;2023-02-11T11:10:37;54680.66;;;-143.77;89.58
13836;BME280;6988;52.614;13.500;2023-02-11T11:15:34;54684.75;;;-143.77;89.84
13836;BME280;6988;52.614;13.500;2023-02-11T11:20:29;54678.59;;;-143.77;89.80
13836;BME280;6988;52.614;13.500;2023-02-11T11:25:27;54695.00;;;-143.77;90.34
13836;BME280;6988;52.614;13.500;2023-02-11T11:30:21;54660.13;;;-143.77;90.44
13836;BME280;6988;52.614;13.500;2023-02-11T11:35:26;54686.81;;;-143.77;90.01
13836;BME280;6988;52.614;13.500;2023-02-11T11:40:25;54676.53;;;-143.77;89.71
13836;BME280;6988;52.614;13.500;2023-02-11T11:45:24;54682.69;;;-143.77;89.95
13836;BME280;6988;52.614;13.500;2023-02-11T11:50:26;54672.44;;;-143.77;89.87
13836;BME280;6988;52.614;13.500;2023-02-11T11:55:23;54682.69;;;-143.77;90.10
13836;BME280;6988;52.614;13.500;2023-02-11T12:00:20;54645.75;;;-143.77;89.91
13836;BME280;6988;52.614;13.500;2023-02-11T12:05:19;54672.44;;;-143.77;90.10
13836;BME280;6988;52.614;13.500;2023-02-11T12:10:36;54680.66;;;-143.77;89.82
13836;BME280;6988;52.614;13.500;2023-02-11T12:15:39;54666.28;;;-143.77;89.82
13836;BME280;6988;52.614;13.500;2023-02-11T12:20:51;54684.75;;;-143.77;89.69
13836;BME280;6988;52.614;13.500;2023-02-11T12:25:56;54699.13;;;-143.77;89.25
13836;BME280;6988;52.614;13.500;2023-02-11T12:31:05;54660.13;;;-143.77;89.57
13836;BME280;6988;52.614;13.500;2023-02-11T12:36:08;54660.13;;;-143.77;89.34
13836;BME280;6988;52.614;13.500;2023-02-11T12:41:26;54651.91;;;-143.77;88.84
13836;BME280;6988;52.614;13.500;2023-02-11T12:46:48;54676.53;;;-143.77;89.02
13836;BME280;6988;52.614;13.500;2023-02-11T12:52:01;54682.69;;;-143.77;89.56
13836;BME280;6988;52.614;13.500;2023-02-11T12:57:07;54705.28;;;-143.77;89.69
13836;BME280;6988;52.614;13.500;2023-02-11T13:02:19;54672.44;;;-143.77;89.57
13836;BME280;6988;52.614;13.500;2023-02-11T13:07:20;54682.69;;;-143.77;89.84
13836;BME280;6988;52.614;13.500;2023-02-11T13:12:15;54647.81;;;-143.77;90.23
13836;BME280;6988;52.614;13.500;2023-02-11T13:17:32;54672.44;;;-143.77;89.78
13836;BME280;6988;52.614;13.500;2023-02-11T13:22:33;54703.22;;;-143.77;90.24
13836;BME280;6988;52.614;13.500;2023-02-11T13:27:42;54682.69;;;-143.77;90.44
13836;BME280;6988;52.614;13.500;2023-02-11T13:33:03;54653.97;;;-143.77;90.84
13836;BME280;6988;52.614;13.500;2023-02-11T13:37:57;54660.13;;;-143.77;90.89
13836;BME280;6988;52.614;13.500;2023-02-11T13:42:54;54627.28;;;-143.77;90.80
13836;BME280;6988;52.614;13.500;2023-02-11T13:47:46;54682.69;;;-143.77;91.25
13836;BME280;6988;52.614;13.500;2023-02-11T13:52:38;54672.44;;;-143.77;91.01
13836;BME280;6988;52.614;13.500;2023-02-11T13:57:38;54653.97;;;-143.77;91.69
13836;BME280;6988;52.614;13.500;2023-02-11T14:02:33;54656.03;;;-143.77;91.36
13836;BME280;6988;52.614;13.500;2023-02-11T14:08:24;54649.88;;;-143.77;91.25
13836;BME280;6988;52.614;13.500;2023-02-11T14:13:35;54672.44;;;-143.77;91.60
13836;BME280;6988;52.614;13.500;2023-02-11T14:19:00;54649.88;;;-143.77;91.54
13836;BME280;6988;52.614;13.500;2023-02-11T14:29:34;54623.19;;;-143.77;92.04
13836;BME280;6988;52.614;13.500;2023-02-11T14:34:44;54633.44;;;-143.77;91.69
13836;BME280;6988;52.614;13.500;2023-02-11T14:39:56;54649.88;;;-143.77;91.87
13836;BME280;6988;52.614;13.500;2023-02-11T14:44:51;54684.75;;;-143.77;91.93
13836;BME280;6988;52.614;13.500;2023-02-11T14:49:47;54662.19;;;-143.77;92.22
13836;BME280;6988;52.614;13.500;2023-02-11T14:54:41;54684.75;;;-143.77;92.29
13836;BME280;6988;52.614;13.500;2023-02-11T14:59:34;54676.53;;;-143.77;92.08
13836;BME280;6988;52.614;13.500;2023-02-11T15:04:29;54682.69;;;-143.77;92.23
13836;BME280;6988;52.614;13.500;2023-02-11T15:09:31;54662.19;;;-143.77;92.01
13836;BME280;6988;52.614;13.500;2023-02-11T15:14:27;54676.53;;;-143.77;92.60
13836;BME280;6988;52.614;13.500;2023-02-11T15:19:24;54666.28;;;-143.77;92.66
13836;BME280;6988;52.614;13.500;2023-02-11T15:24:25;54645.75;;;-143.77;92.73
13836;BME280;6988;52.614;13.500;2023-02-11T15:29:17;54684.75;;;-143.77;92.71
13836;BME280;6988;52.614;13.500;2023-02-11T15:34:08;54697.06;;;-143.77;92.94
13836;BME280;6988;52.614;13.500;2023-02-11T15:39:26;54678.59;;;-143.77;93.25
13836;BME280;6988;52.614;13.500;2023-02-11T15:44:29;54672.44;;;-143.77;93.03
13836;BME280;6988;52.614;13.500;2023-02-11T15:49:23;54697.06;;;-143.77;93.57
13836;BME280;6988;52.614;13.500;2023-02-11T15:54:19;54651.91;;;-143.77;93.17
13836;BME280;6988;52.614;13.500;2023-02-11T15:59:18;54692.97;;;-143.77;93.05
13836;BME280;6988;52.614;13.500;2023-02-11T16:04:19;54690.91;;;-143.77;93.45
13836;BME280;6988;52.614;13.500;2023-02-11T16:09:24;54643.72;;;-143.77;93.46
13836;BME280;6988;52.614;13.500;2023-02-11T16:14:26;54672.44;;;-143.77;93.76
13836;BME280;6988;52.614;13.500;2023-02-11T16:19:23;54662.19;;;-143.77;93.87
13836;BME280;6988;52.614;13.500;2023-02-11T16:24:20;54684.75;;;-143.77;93.80
13836;BME280;6988;52.614;13.500;2023-02-11T16:29:15;54682.69;;;-143.77;93.79
13836;BME280;6988;52.614;13.500;2023-02-11T16:34:13;54639.59;;;-143.77;93.75
13836;BME280;6988;52.614;13.500;2023-02-11T16:39:07;54668.34;;;-143.77;93.81
13836;BME280;6988;52.614;13.500;2023-02-11T16:43:59;54674.50;;;-143.77;93.70
13836;BME280;6988;52.614;13.500;2023-02-11T16:48:51;54647.81;;;-143.77;93.98
13836;BME280;6988;52.614;13.500;2023-02-11T16:53:43;54662.19;;;-143.77;94.10
13836;BME280;6988;52.614;13.500;2023-02-11T16:58:36;54674.50;;;-143.77;93.71
13836;BME280;6988;52.614;13.500;2023-02-11T17:03:28;54670.38;;;-143.77;93.99
13836;BME280;6988;52.614;13.500;2023-02-11T17:08:25;54676.53;;;-143.77;94.10
13836;BME280;6988;52.614;13.500;2023-02-11T17:13:16;54672.44;;;-143.77;93.87
13836;BME280;6988;52.614;13.500;2023-02-11T17:18:12;54662.19;;;-143.77;93.93
13836;BME280;6988;52.614;13.500;2023-02-11T17:23:04;54662.19;;;-143.77;93.97
13836;BME280;6988;52.614;13.500;2023-02-11T17:27:56;54680.66;;;-143.77;93.77
13836;BME280;6988;52.614;13.500;2023-02-11T17:32:48;54668.34;;;-143.77;93.95
13836;BME280;6988;52.614;13.500;2023-02-11T17:37:41;54639.59;;;-143.77;94.12
13836;BME280;6988;52.614;13.500;2023-02-11T17:42:33;54658.06;;;-143.77;93.94
13836;BME280;6988;52.614;13.500;2023-02-11T17:47:25;54662.19;;;-143.77;94.01
13836;BME280;6988;52.614;13.500;2023-02-11T17:52:17;54629.34;;;-143.77;93.93
13836;BME280;6988;52.614;13.500;2023-02-11T17:57:11;54658.06;;;-143.77;93.73
13836;BME280;6988;52.614;13.500;2023-02-11T18:02:03;54688.84;;;-143.77;93.95
13836;BME280;6988;52.614;13.500;2023-02-11T18:06:55;54692.97;;;-143.77;93.60
13836;BME280;6988;52.614;13.500;2023-02-11T18:11:48;54676.53;;;-143.77;93.61
13836;BME280;6988;52.614;13.500;2023-02-11T18:16:43;54695.00;;;-143.77;93.80
13836;BME280;6988;52.614;13.500;2023-02-11T18:21:35;54709.38;;;-143.77;94.07
13836;BME280;6988;52.614;13.500;2023-02-11T18:26:27;54674.50;;;-143.77;93.77
13836;BME280;6988;52.614;13.500;2023-02-11T18:31:19;54672.44;;;-143.77;93.86
13836;BME280;6988;52.614;13.500;2023-02-11T18:36:15;54643.72;;;-143.77;93.72
13836;BME280;6988;52.614;13.500;2023-02-11T18:41:07;54631.41;;;-143.77;93.92
13836;BME280;6988;52.614;13.500;2023-02-11T18:46:01;54660.13;;;-143.77;94.18
13836;BME280;6988;52.614;13.500;2023-02-11T18:50:54;54656.03;;;-143.77;93.79
13836;BME280;6988;52.614;13.500;2023-02-11T18:55:48;54672.44;;;-143.77;93.78
13836;BME280;6988;52.614;13.500;2023-02-11T19:00:44;54662.19;;;-143.77;94.01
13836;BME280;6988;52.614;13.500;2023-02-11T19:05:40;54668.34;;;-143.77;93.67
13836;BME280;6988;52.614;13.500;2023-02-11T19:10:32;54666.28;;;-143.77;93.88
13836;BME280;6988;52.614;13.500;2023-02-11T19:15:25;54674.50;;;-143.77;93.84
13836;BME280;6988;52.614;13.500;2023-02-11T19:20:18;54656.03;;;-143.77;93.94
13836;BME280;6988;52.614;13.500;2023-02-11T19:25:10;54682.69;;;-143.77;93.70
13836;BME280;6988;52.614;13.500;2023-02-11T19:30:03;54668.34;;;-143.77;93.68
13836;BME280;6988;52.614;13.500;2023-02-11T19:34:56;54705.28;;;-143.77;93.71
13836;BME280;6988;52.614;13.500;2023-02-11T19:39:48;54623.19;;;-143.77;93.91
13836;BME280;6988;52.614;13.500;2023-02-11T19:44:40;54662.19;;;-143.77;93.66
13836;BME280;6988;52.614;13.500;2023-02-11T19:49:32;54664.22;;;-143.77;93.75
13836;BME280;6988;52.614;13.500;2023-02-11T19:54:26;54690.91;;;-143.77;93.93
13836;BME280;6988;52.614;13.500;2023-02-11T19:59:20;54672.44;;;-143.77;94.10
13836;BME280;6988;52.614;13.500;2023-02-11T20:04:12;54727.84;;;-143.77;93.95
13836;BME280;6988;52.614;13.500;2023-02-11T20:09:06;54672.44;;;-143.77;93.84
13836;BME280;6988;52.614;13.500;2023-02-11T20:14:01;54672.44;;;-143.77;94.03
13836;BME280;6988;52.614;13.500;2023-02-11T20:18:54;54709.38;;;-143.77;94.29
13836;BME280;6988;52.614;13.500;2023-02-11T20:23:47;54656.03;;;-143.77;94.40
13836;BME280;6988;52.614;13.500;2023-02-11T20:28:39;54635.50;;;-143.77;94.04
13836;BME280;6988;52.614;13.500;2023-02-11T20:33:32;54682.69;;;-143.77;94.10
13836;BME280;6988;52.614;13.500;2023-02-11T20:38:25;54651.91;;;-143.77;93.82
13836;BME280;6988;52.614;13.500;2023-02-11T20:43:18;54664.22;;;-143.77;94.00
13836;BME280;6988;52.614;13.500;2023-02-11T20:48:10;54684.75;;;-143.77;93.55
13836;BME280;6988;52.614;13.500;2023-02-11T20:53:03;54692.97;;;-143.77;93.95
13836;BME280;6988;52.614;13.500;2023-02-11T20:57:55;54713.47;;;-143.77;94.22
13836;BME280;6988;52.614;13.500;2023-02-11T21:02:50;54684.75;;;-143.77;94.17
13836;BME280;6988;52.614;13.500;2023-02-11T21:07:42;54713.47;;;-143.77;93.99
13836;BME280;6988;52.614;13.500;2023-02-11T21:12:35;54662.19;;;-143.77;94.37
13836;BME280;6988;52.614;13.500;2023-02-11T21:17:26;54670.38;;;-143.77;94.26
13836;BME280;6988;52.614;13.500;2023-02-11T21:22:18;54670.38;;;-143.77;94.46
13836;BME280;6988;52.614;13.500;2023-02-11T21:27:10;54674.50;;;-143.77;94.51
13836;BME280;6988;52.614;13.500;2023-02-11T21:32:03;54692.97;;;-143.77;94.19
13836;BME280;6988;52.614;13.500;2023-02-11T21:36:55;54707.31;;;-143.77;94.34
13836;BME280;6988;52.614;13.500;2023-02-11T21:41:47;54658.06;;;-143.77;94.01
13836;BME280;6988;52.614;13.500;2023-02-11T21:46:39;54688.84;;;-143.77;94.07
13836;BME280;6988;52.614;13.500;2023-02-11T21:51:32;54678.59;;;-143.77;93.60
13836;BME280;6988;52.614;13.500;2023-02-11T21:56:24;54668.34;;;-143.77;93.60
13836;BME280;6988;52.614;13.500;2023-02-11T22:01:20;54684.75;;;-143.77;93.54
13836;BME280;6988;52.614;13.500;2023-02-11T22:06:15;54649.88;;;-143.77;93.10
13836;BME280;6988;52.614;13.500;2023-02-11T22:11:10;54690.91;;;-143.77;92.95
13836;BME280;6988;52.614;13.500;2023-02-11T22:16:05;54697.06;;;-143.77;93.00
13836;BME280;6988;52.614;13.500;2023-02-11T22:21:00;54668.34;;;-143.77;92.88
13836;BME280;6988;52.614;13.500;2023-02-11T22:25:52;54662.19;;;-143.77;93.05
13836;BME280;6988;52.614;13.500;2023-02-11T22:30:45;54684.75;;;-143.77;92.80
13836;BME280;6988;52.614;13.500;2023-02-11T22:35:37;54715.53;;;-143.77;92.63
13836;BME280;6988;52.614;13.500;2023-02-11T22:40:28;54688.84;;;-143.77;92.49
13836;BME280;6988;52.614;13.500;2023-02-11T22:45:20;54682.69;;;-143.77;92.49
13836;BME280;6988;52.614;13.500;2023-02-11T23:04:21;54684.75;;;-143.77;92.88
13836;BME280;6988;52.614;13.500;2023-02-11T23:09:13;54725.78;;;-143.77;92.70
13836;BME280;6988;52.614;13.500;2023-02-11T23:14:05;54690.91;;;-143.77;92.86
13836;BME280;6988;52.614;13.500;2023-02-11T23:18:59;54705.28;;;-143.77;93.04
13836;BME280;6988;52.614;13.500;2023-02-11T23:23:56;54697.06;;;-143.77;93.24
13836;BME280;6988;52.614;13.500;2023-02-11T23:28:48;54723.75;;;-143.77;93.34
13836;BME280;6988;52.614;13.500;2023-02-11T23:33:39;54729.91;;;-143.77;93.17
13836;BME280;6988;52.614;13.500;2023-02-11T23:38:31;54707.31;;;-143.77;93.38
13836;BME280;6988;52.614;13.500;2023-02-11T23:43:24;54709.38;;;-143.77;93.51
13836;BME280;6988;52.614;13.500;2023-02-11T23:48:16;54709.38;;;-143.77;93.15
13836;BME280;6988;52.614;13.500;2023-02-11T23:53:08;54678.59;;;-143.77;93.42
13836;BME280;6988;52.614;13.500;2023-02-11T23:58:00;54717.59;;;-143.77;93.67
